createdAt,value
2019-02-27T00:00:25.193Z,70.00
2019-02-27T00:02:56.142Z,70.20
2019-02-27T00:05:23.864Z,70.10
2019-02-27T00:07:54.730Z,70.20
2019-02-27T00:10:22.507Z,70.00
2019-02-27T00:12:52.923Z,70.00
2019-02-27T00:15:22.313Z,70.20
2019-02-27T00:17:52.129Z,70.60
2019-02-27T00:20:20.911Z,70.60
2019-02-27T00:22:50.619Z,70.40
2019-02-27T00:25:19.647Z,70.70
2019-02-27T00:27:49.853Z,71.40
2019-02-27T00:30:18.348Z,71.00
2019-02-27T00:32:50.975Z,71.20
2019-02-27T00:35:17.084Z,70.80
2019-02-27T00:37:46.373Z,71.00
2019-02-27T00:40:15.783Z,70.90
2019-02-27T00:42:45.072Z,71.20
2019-02-27T00:45:14.815Z,71.10
2019-02-27T00:47:44.158Z,71.10
2019-02-27T00:50:13.497Z,71.30
2019-02-27T00:52:42.891Z,71.40
2019-02-27T00:55:12.239Z,72.20
2019-02-27T00:57:41.570Z,72.30
2019-02-27T01:00:13.597Z,73.30
2019-02-27T01:02:41.458Z,73.60
2019-02-27T01:05:10.748Z,74.10
2019-02-27T01:07:40.042Z,73.70
2019-02-27T01:10:12.003Z,73.20
2019-02-27T01:12:39.048Z,73.20
2019-02-27T01:15:10.681Z,73.10
2019-02-27T01:17:37.859Z,73.00
2019-02-27T01:20:11.227Z,73.10
2019-02-27T01:22:37.524Z,73.10
2019-02-27T01:25:06.869Z,73.10
2019-02-27T01:27:38.082Z,73.40
2019-02-27T01:30:06.391Z,73.00
2019-02-27T01:32:36.156Z,73.30
2019-02-27T01:35:06.456Z,73.40
2019-02-27T01:37:35.732Z,73.80
2019-02-27T01:40:06.413Z,74.00
2019-02-27T01:42:35.749Z,74.00
2019-02-27T01:45:07.279Z,74.40
2019-02-27T01:47:36.601Z,74.70
2019-02-27T01:50:24.799Z,75.30
2019-02-27T01:52:54.160Z,75.20
2019-02-27T01:55:23.521Z,74.80
2019-02-27T01:57:52.920Z,74.60
2019-02-27T02:00:23.263Z,74.40
2019-02-27T02:02:51.796Z,74.40
2019-02-27T02:05:21.184Z,74.60
2019-02-27T02:07:50.539Z,74.80
2019-02-27T02:10:19.867Z,74.70
2019-02-27T02:12:54.553Z,74.80
2019-02-27T02:15:43.872Z,75.10
2019-02-27T02:18:39.836Z,75.30
2019-02-27T02:21:20.726Z,75.20
2019-02-27T02:24:10.137Z,74.90
2019-02-27T02:26:58.529Z,74.70
2019-02-27T02:30:30.815Z,76.70
2019-02-27T02:35:26.017Z,76.60
2019-02-27T02:38:13.706Z,76.80
2019-02-27T02:41:10.769Z,75.60
2019-02-27T02:43:56.814Z,75.30
2019-02-27T02:47:25.759Z,76.00
2019-02-27T02:50:25.093Z,76.00
2019-02-27T02:53:11.449Z,75.40
2019-02-27T02:56:02.378Z,75.10
2019-02-27T02:58:48.787Z,75.00
2019-02-27T03:01:26.826Z,74.90
2019-02-27T03:06:56.544Z,75.10
2019-02-27T03:09:52.905Z,75.00
2019-02-27T03:12:45.352Z,76.10
2019-02-27T03:15:36.256Z,76.60
2019-02-27T03:18:21.865Z,77.00
2019-02-27T03:22:07.121Z,76.60
2019-02-27T03:25:32.120Z,76.30
2019-02-27T03:28:18.048Z,75.90
2019-02-27T03:31:18.453Z,75.90
2019-02-27T03:34:12.370Z,76.00
2019-02-27T03:37:13.438Z,77.20
2019-02-27T03:40:00.941Z,76.90
2019-02-27T03:42:47.837Z,76.80
2019-02-27T03:45:41.968Z,76.60
2019-02-27T03:50:28.094Z,76.80
2019-02-27T03:53:48.554Z,77.80
2019-02-27T03:58:34.834Z,77.90
2019-02-27T04:01:34.032Z,78.10
2019-02-27T04:04:39.550Z,77.70
2019-02-27T04:07:22.944Z,77.70
2019-02-27T04:09:55.396Z,77.30
2019-02-27T04:12:21.719Z,77.40
2019-02-27T04:14:51.122Z,77.30
2019-02-27T04:17:29.022Z,78.20
2019-02-27T04:19:58.711Z,78.50
2019-02-27T04:22:28.064Z,78.30
2019-02-27T04:24:57.984Z,78.90
2019-02-27T04:27:28.415Z,79.30
2019-02-27T04:29:57.742Z,79.90
2019-02-27T04:32:27.069Z,79.60
2019-02-27T04:34:56.900Z,78.60
2019-02-27T04:37:26.322Z,78.20
2019-02-27T04:39:55.615Z,78.30
2019-02-27T04:42:25.739Z,78.90
2019-02-27T04:45:01.971Z,79.00
2019-02-27T04:47:32.036Z,79.80
2019-02-27T04:50:01.667Z,79.60
2019-02-27T04:52:30.972Z,80.00
2019-02-27T04:55:00.321Z,80.50
2019-02-27T04:57:33.392Z,79.80
2019-02-27T04:59:58.883Z,80.00
2019-02-27T05:02:28.207Z,80.00
2019-02-27T05:04:57.569Z,80.60
2019-02-27T05:07:26.881Z,80.00
2019-02-27T05:09:56.247Z,78.90
2019-02-27T05:12:25.620Z,80.00
2019-02-27T05:14:54.879Z,80.70
2019-02-27T05:17:24.245Z,80.10
2019-02-27T05:19:53.555Z,79.10
2019-02-27T05:22:26.299Z,78.80
2019-02-27T05:24:53.620Z,78.60
2019-02-27T05:27:34.132Z,78.60
2019-02-27T05:30:03.460Z,78.50
2019-02-27T05:32:33.320Z,79.20
2019-02-27T05:35:02.741Z,79.40
2019-02-27T05:37:32.081Z,79.60
2019-02-27T05:40:01.345Z,80.40
2019-02-27T05:42:30.643Z,80.20
2019-02-27T05:44:59.964Z,80.50
2019-02-27T05:47:29.327Z,80.00
2019-02-27T05:50:00.467Z,79.80
2019-02-27T05:52:27.995Z,79.20
2019-02-27T05:54:57.351Z,79.10
2019-02-27T05:57:27.637Z,79.40
2019-02-27T05:59:56.900Z,79.40
2019-02-27T06:02:26.828Z,79.20
2019-02-27T06:04:59.069Z,79.40
2019-02-27T06:07:26.456Z,79.20
2019-02-27T06:09:55.947Z,79.10
2019-02-27T06:12:25.323Z,79.50
2019-02-27T06:14:55.533Z,79.40
2019-02-27T06:17:24.482Z,79.50
2019-02-27T06:19:53.699Z,79.30
2019-02-27T06:22:23.076Z,79.50
2019-02-27T06:24:52.383Z,79.50
2019-02-27T06:27:21.664Z,79.60
2019-02-27T06:29:51.023Z,79.80
2019-02-27T06:32:20.483Z,79.40
2019-02-27T06:34:49.786Z,79.30
2019-02-27T06:37:19.144Z,79.80
2019-02-27T06:39:48.454Z,79.80
2019-02-27T06:42:17.839Z,80.00
2019-02-27T06:44:47.131Z,79.90
2019-02-27T06:47:17.205Z,80.20
2019-02-27T06:49:49.062Z,79.50
2019-02-27T06:52:15.840Z,79.50
2019-02-27T06:54:45.165Z,79.40
2019-02-27T06:57:14.534Z,79.20
2019-02-27T06:59:43.879Z,80.00
2019-02-27T07:02:13.159Z,81.10
2019-02-27T07:04:42.426Z,80.50
2019-02-27T07:07:11.748Z,82.10
2019-02-27T07:09:43.186Z,81.20
2019-02-27T07:12:10.363Z,81.50
2019-02-27T07:14:39.945Z,81.10
2019-02-27T07:17:09.032Z,79.60
2019-02-27T07:19:38.385Z,79.00
2019-02-27T07:22:09.236Z,79.10
2019-02-27T07:24:37.034Z,79.10
2019-02-27T07:27:06.399Z,80.20
2019-02-27T07:29:35.724Z,80.30
2019-02-27T07:32:05.005Z,80.30
2019-02-27T07:34:34.859Z,80.00
2019-02-27T07:37:04.150Z,79.90
2019-02-27T07:39:33.454Z,80.10
2019-02-27T07:42:03.032Z,80.30
2019-02-27T07:44:35.141Z,80.60
2019-02-27T07:47:02.715Z,80.40
2019-02-27T07:49:32.043Z,79.70
2019-02-27T07:52:01.365Z,79.50
2019-02-27T07:54:30.656Z,79.30
2019-02-27T07:56:59.964Z,80.00
2019-02-27T07:59:29.929Z,81.00
2019-02-27T08:02:02.359Z,80.10
2019-02-27T08:04:28.663Z,80.20
2019-02-27T08:06:57.998Z,80.20
2019-02-27T08:09:29.929Z,79.80
2019-02-27T08:11:56.722Z,79.30
2019-02-27T08:14:26.053Z,78.60
2019-02-27T08:16:57.943Z,78.40
2019-02-27T08:19:24.748Z,79.00
2019-02-27T08:21:54.074Z,78.70
2019-02-27T08:24:24.857Z,78.50
2019-02-27T08:26:52.789Z,78.40
2019-02-27T08:29:28.845Z,77.10
2019-02-27T08:32:00.683Z,76.90
2019-02-27T08:34:27.532Z,77.30
2019-02-27T08:36:57.457Z,76.80
2019-02-27T08:39:26.821Z,77.00
2019-02-27T08:41:56.124Z,76.60
2019-02-27T08:44:26.135Z,76.40
2019-02-27T08:46:55.500Z,76.40
2019-02-27T08:49:26.872Z,76.50
2019-02-27T08:51:56.218Z,76.10
2019-02-27T08:54:25.588Z,76.20
2019-02-27T08:56:54.900Z,75.20
2019-02-27T08:59:24.208Z,75.40
2019-02-27T09:01:56.356Z,75.60
2019-02-27T09:04:22.880Z,75.80
2019-02-27T09:06:52.200Z,75.20
2019-02-27T09:09:21.652Z,74.70
2019-02-27T09:11:51.017Z,75.10
2019-02-27T09:14:20.400Z,75.10
2019-02-27T09:16:49.711Z,74.60
2019-02-27T09:19:20.703Z,74.50
2019-02-27T09:21:48.358Z,74.50
2019-02-27T09:24:17.776Z,74.20
2019-02-27T09:26:47.152Z,74.80
2019-02-27T09:29:18.632Z,73.70
2019-02-27T09:31:50.782Z,74.50
2019-02-27T09:34:17.702Z,74.00
2019-02-27T09:36:49.059Z,73.70
2019-02-27T09:39:16.564Z,73.50
2019-02-27T09:41:46.903Z,73.30
2019-02-27T09:44:15.244Z,73.30
2019-02-27T09:46:45.589Z,73.00
2019-02-27T09:49:14.898Z,72.10
2019-02-27T09:51:45.125Z,71.50
2019-02-27T09:54:14.525Z,70.70
2019-02-27T09:56:43.883Z,70.90
2019-02-27T09:59:13.318Z,70.60
2019-02-27T10:01:42.771Z,70.20
2019-02-27T10:04:12.139Z,70.30
2019-02-27T10:06:42.827Z,69.90
2019-02-27T10:09:18.339Z,69.80
2019-02-27T10:11:48.215Z,68.50
2019-02-27T10:14:17.571Z,68.30
2019-02-27T10:16:46.997Z,68.10
2019-02-27T10:19:17.134Z,68.40
2019-02-27T10:21:47.476Z,68.80
2019-02-27T10:24:15.070Z,68.10
2019-02-27T10:26:44.431Z,67.50
2019-02-27T10:29:14.252Z,67.80
2019-02-27T10:31:44.224Z,67.70
2019-02-27T10:34:14.584Z,67.30
2019-02-27T10:36:43.711Z,66.90
2019-02-27T10:39:13.035Z,67.00
2019-02-27T10:41:42.393Z,67.00
2019-02-27T10:44:11.776Z,66.50
2019-02-27T10:46:41.141Z,66.70
2019-02-27T10:49:16.580Z,66.10
2019-02-27T10:51:48.848Z,65.10
2019-02-27T10:54:18.132Z,65.30
2019-02-27T10:56:47.583Z,64.30
2019-02-27T10:59:19.655Z,65.00
2019-02-27T11:01:47.168Z,62.60
2019-02-27T11:04:16.593Z,61.90
2019-02-27T11:06:45.980Z,62.40
2019-02-27T11:09:24.103Z,62.60
2019-02-27T11:11:53.905Z,61.70
2019-02-27T11:14:22.972Z,60.70
2019-02-27T11:16:52.348Z,61.10
2019-02-27T11:19:21.655Z,59.80
2019-02-27T11:21:50.989Z,60.50
2019-02-27T11:24:20.376Z,60.20
2019-02-27T11:26:49.804Z,60.30
2019-02-27T11:29:23.584Z,60.10
2019-02-27T11:31:49.267Z,60.50
2019-02-27T11:34:18.570Z,59.80
2019-02-27T11:36:47.949Z,57.40
2019-02-27T11:39:17.367Z,56.00
2019-02-27T11:41:48.478Z,56.10
2019-02-27T11:44:16.077Z,54.90
2019-02-27T11:46:45.425Z,53.60
2019-02-27T11:49:14.708Z,55.30
2019-02-27T11:51:44.484Z,54.30
2019-02-27T11:54:14.586Z,54.50
2019-02-27T11:56:43.230Z,53.60
2019-02-27T11:59:12.944Z,51.20
2019-02-27T12:01:42.160Z,52.70
2019-02-27T12:04:11.456Z,51.20
2019-02-27T12:06:41.666Z,49.80
2019-02-27T12:09:11.625Z,50.30
2019-02-27T12:11:40.972Z,49.20
2019-02-27T12:14:10.364Z,49.40
2019-02-27T12:16:39.739Z,49.80
2019-02-27T12:19:09.470Z,47.70
2019-02-27T12:21:38.379Z,48.10
2019-02-27T12:24:07.748Z,46.30
2019-02-27T12:26:37.511Z,46.10
2019-02-27T12:29:06.521Z,45.60
2019-02-27T12:31:37.160Z,46.10
2019-02-27T12:34:06.475Z,45.40
2019-02-27T12:36:35.925Z,47.20
2019-02-27T12:39:06.730Z,48.10
2019-02-27T12:41:36.955Z,47.60
2019-02-27T12:44:06.332Z,47.60
2019-02-27T12:46:37.004Z,46.80
2019-02-27T12:49:05.152Z,48.20
2019-02-27T12:51:35.323Z,46.70
2019-02-27T12:54:03.849Z,46.40
2019-02-27T12:56:33.192Z,46.00
2019-02-27T12:59:02.589Z,47.50
2019-02-27T13:01:31.915Z,47.90
2019-02-27T13:04:01.804Z,48.20
2019-02-27T13:06:34.394Z,48.10
2019-02-27T13:09:00.530Z,47.20
2019-02-27T13:11:29.870Z,46.80
2019-02-27T13:13:59.688Z,48.30
2019-02-27T13:16:28.552Z,47.40
2019-02-27T13:18:58.048Z,47.10
2019-02-27T13:21:27.393Z,46.60
2019-02-27T13:23:56.747Z,45.10
2019-02-27T13:26:26.091Z,45.10
2019-02-27T13:28:55.451Z,47.40
2019-02-27T13:31:26.828Z,46.80
2019-02-27T13:33:54.145Z,45.60
2019-02-27T13:36:23.520Z,45.70
2019-02-27T13:38:52.947Z,44.70
2019-02-27T13:41:23.782Z,45.20
2019-02-27T13:43:52.264Z,43.50
2019-02-27T13:46:22.747Z,44.50
2019-02-27T13:48:50.980Z,43.90
2019-02-27T13:51:20.393Z,44.50
2019-02-27T13:53:49.963Z,45.60
2019-02-27T13:56:19.258Z,45.50
2019-02-27T13:58:48.549Z,43.60
2019-02-27T14:01:17.935Z,43.00
2019-02-27T14:03:48.361Z,42.70
2019-02-27T14:06:17.397Z,43.10
2019-02-27T14:08:47.294Z,43.50
2019-02-27T14:11:16.611Z,44.40
2019-02-27T14:13:45.969Z,42.80
2019-02-27T14:16:15.327Z,42.20
2019-02-27T14:18:44.789Z,41.00
2019-02-27T14:21:14.941Z,40.50
2019-02-27T14:23:46.873Z,39.60
2019-02-27T14:26:13.564Z,40.10
2019-02-27T14:28:42.892Z,42.10
2019-02-27T14:31:13.234Z,41.00
2019-02-27T14:33:41.689Z,38.10
2019-02-27T14:36:11.032Z,34.50
2019-02-27T14:38:40.416Z,35.60
2019-02-27T14:41:11.238Z,24.90
2019-02-27T14:43:39.324Z,23.70
2019-02-27T14:46:11.543Z,21.90
2019-02-27T14:48:38.992Z,22.50
2019-02-27T14:51:11.048Z,19.60
2019-02-27T14:53:37.639Z,23.50
2019-02-27T14:56:09.396Z,20.40
2019-02-27T14:58:36.352Z,21.20
2019-02-27T15:01:05.841Z,15.20
2019-02-27T15:03:35.292Z,18.50
2019-02-27T15:06:04.597Z,15.40
2019-02-27T15:08:34.572Z,15.30
2019-02-27T15:11:03.933Z,15.50
2019-02-27T15:13:33.804Z,21.40
2019-02-27T15:16:03.115Z,14.50
2019-02-27T15:18:32.432Z,20.40
2019-02-27T15:21:01.877Z,15.30
2019-02-27T15:23:31.268Z,19.50
2019-02-27T15:26:01.179Z,14.50
2019-02-27T15:28:33.330Z,16.30
2019-02-27T15:31:00.719Z,14.60
2019-02-27T15:33:30.768Z,19.00
2019-02-27T15:36:00.181Z,13.40
2019-02-27T15:38:29.544Z,16.20
2019-02-27T15:41:02.407Z,14.40
2019-02-27T15:43:28.288Z,13.70
2019-02-27T15:45:58.014Z,18.10
2019-02-27T15:48:27.363Z,22.20
2019-02-27T15:50:57.433Z,26.00
2019-02-27T15:53:26.132Z,27.40
2019-02-27T15:55:56.049Z,30.60
2019-02-27T15:58:28.162Z,30.50
2019-02-27T16:00:54.758Z,36.50
2019-02-27T16:03:24.141Z,30.90
2019-02-27T16:05:53.497Z,32.20
2019-02-27T16:08:23.402Z,31.30
2019-02-27T16:10:55.160Z,32.00
2019-02-27T16:13:21.605Z,32.70
2019-02-27T16:15:51.557Z,37.90
2019-02-27T16:18:20.855Z,37.70
2019-02-27T16:20:50.594Z,36.60
2019-02-27T16:23:19.601Z,37.10
2019-02-27T16:25:52.843Z,36.80
2019-02-27T16:28:18.232Z,38.50
2019-02-27T16:30:47.684Z,36.10
2019-02-27T16:33:23.579Z,36.70
2019-02-27T16:35:46.971Z,35.80
2019-02-27T16:38:16.607Z,38.80
2019-02-27T16:40:45.940Z,38.80
2019-02-27T16:43:16.063Z,39.60
2019-02-27T16:45:45.448Z,38.20
2019-02-27T16:48:15.203Z,38.70
2019-02-27T16:50:45.718Z,39.10
2019-02-27T16:53:18.455Z,38.90
2019-02-27T16:55:44.224Z,39.90
2019-02-27T16:58:13.539Z,42.20
2019-02-27T17:00:43.512Z,41.70
2019-02-27T17:03:13.379Z,43.20
2019-02-27T17:05:43.122Z,44.30
2019-02-27T17:08:11.862Z,42.60
2019-02-27T17:10:44.093Z,43.60
2019-02-27T17:13:15.391Z,43.20
2019-02-27T17:15:44.710Z,45.60
2019-02-27T17:18:15.079Z,44.50
2019-02-27T17:20:46.524Z,44.40
2019-02-27T17:23:13.821Z,45.30
2019-02-27T17:25:43.149Z,46.30
2019-02-27T17:28:12.439Z,46.30
2019-02-27T17:30:42.588Z,46.10
2019-02-27T17:33:11.912Z,47.80
2019-02-27T17:35:41.235Z,47.20
2019-02-27T17:38:10.854Z,48.60
2019-02-27T17:40:41.540Z,48.00
2019-02-27T17:43:10.857Z,48.90
2019-02-27T17:45:40.233Z,48.80
2019-02-27T17:48:12.315Z,49.30
2019-02-27T17:50:39.849Z,49.50
2019-02-27T17:53:10.065Z,49.60
2019-02-27T17:55:41.759Z,49.70
2019-02-27T17:58:16.543Z,50.10
2019-02-27T18:00:50.097Z,50.20
2019-02-27T18:03:15.361Z,50.60
2019-02-27T18:05:45.388Z,51.10
2019-02-27T18:08:16.260Z,51.30
2019-02-27T18:10:43.998Z,51.20
2019-02-27T18:13:13.332Z,51.40
2019-02-27T18:15:42.735Z,51.30
2019-02-27T18:18:12.732Z,51.50
2019-02-27T18:20:42.127Z,51.70
2019-02-27T18:23:11.472Z,51.70
2019-02-27T18:25:42.023Z,52.10
2019-02-27T18:28:10.722Z,52.00
2019-02-27T18:30:42.495Z,52.10
2019-02-27T18:33:13.494Z,52.10
2019-02-27T18:35:40.218Z,52.30
2019-02-27T18:38:09.434Z,52.20
2019-02-27T18:40:38.725Z,52.40
2019-02-27T18:43:08.053Z,52.60
2019-02-27T18:45:37.322Z,52.40
2019-02-27T18:48:07.281Z,52.70
2019-02-27T18:50:36.128Z,52.80
2019-02-27T18:53:07.453Z,53.10
2019-02-27T18:55:34.830Z,53.50
2019-02-27T18:58:04.705Z,53.30
2019-02-27T19:00:36.258Z,53.50
2019-02-27T19:03:03.238Z,54.20
2019-02-27T19:05:32.531Z,54.60
2019-02-27T19:08:01.814Z,54.80
2019-02-27T19:10:31.110Z,55.10
2019-02-27T19:13:01.130Z,54.80
2019-02-27T19:15:30.206Z,54.90
2019-02-27T19:17:59.656Z,55.00
2019-02-27T19:20:30.253Z,55.20
2019-02-27T19:23:00.431Z,55.50
2019-02-27T19:25:34.129Z,55.60
2019-02-27T19:27:58.234Z,55.60
2019-02-27T19:30:27.942Z,56.50
2019-02-27T19:33:01.479Z,56.80
2019-02-27T19:35:26.819Z,57.20
2019-02-27T19:38:02.868Z,57.20
2019-02-27T19:40:37.022Z,57.00
2019-02-27T19:43:06.489Z,57.10
2019-02-27T19:45:36.661Z,57.80
2019-02-27T19:48:05.334Z,58.20
2019-02-27T19:50:35.301Z,58.20
2019-02-27T19:53:06.987Z,58.20
2019-02-27T19:55:34.148Z,58.00
2019-02-27T19:58:03.462Z,57.80
2019-02-27T20:00:35.564Z,57.80
2019-02-27T20:03:04.856Z,58.30
2019-02-27T20:05:36.247Z,58.60
2019-02-27T20:08:03.697Z,58.70
2019-02-27T20:10:33.366Z,59.00
2019-02-27T20:13:02.279Z,59.00
2019-02-27T20:15:31.636Z,59.40
2019-02-27T20:18:01.133Z,59.50
2019-02-27T20:20:30.430Z,59.80
2019-02-27T20:22:59.767Z,59.60
2019-02-27T20:25:29.390Z,59.50
2019-02-27T20:27:58.970Z,59.40
2019-02-27T20:30:28.260Z,59.90
2019-02-27T20:32:59.779Z,60.60
2019-02-27T20:35:26.895Z,60.30
2019-02-27T20:37:56.258Z,60.20
2019-02-27T20:40:27.613Z,60.10
2019-02-27T20:42:55.653Z,60.40
2019-02-27T20:45:26.633Z,60.60
2019-02-27T20:47:57.647Z,60.70
2019-02-27T20:50:34.751Z,60.80
2019-02-27T20:52:59.820Z,61.00
2019-02-27T20:55:30.847Z,61.10
2019-02-27T20:57:58.700Z,61.00
2019-02-27T21:00:35.972Z,61.50
2019-02-27T21:03:02.589Z,61.70
2019-02-27T21:05:30.338Z,63.70
2019-02-27T21:08:02.179Z,61.40
2019-02-27T21:10:29.456Z,60.70
2019-02-27T21:12:59.067Z,60.60
2019-02-27T21:15:29.256Z,60.20
2019-02-27T21:17:58.740Z,60.20
2019-02-27T21:20:28.336Z,61.20
2019-02-27T21:22:59.903Z,60.90
2019-02-27T21:25:27.421Z,61.20
2019-02-27T21:27:56.815Z,61.30
2019-02-27T21:30:26.269Z,61.20
2019-02-27T21:32:55.761Z,61.10
2019-02-27T21:35:28.614Z,61.00
2019-02-27T21:37:54.582Z,61.00
2019-02-27T21:40:24.038Z,61.00
2019-02-27T21:42:53.440Z,61.40
2019-02-27T21:45:22.924Z,61.60
2019-02-27T21:47:52.915Z,61.60
2019-02-27T21:50:22.292Z,61.70
2019-02-27T21:52:54.292Z,61.50
2019-02-27T21:55:21.011Z,61.40
2019-02-27T21:57:50.488Z,61.60
2019-02-27T22:00:23.329Z,61.80
2019-02-27T22:02:53.004Z,62.60
2019-02-27T22:05:22.323Z,62.70
2019-02-27T22:07:51.736Z,62.50
2019-02-27T22:10:21.068Z,62.40
2019-02-27T22:12:51.327Z,62.60
2019-02-27T22:15:25.240Z,62.60
2019-02-27T22:17:54.668Z,62.50
2019-02-27T22:20:25.942Z,62.40
2019-02-27T22:22:53.323Z,62.80
2019-02-27T22:25:22.702Z,63.30
2019-02-27T22:27:52.052Z,63.30
2019-02-27T22:30:21.463Z,63.40
2019-02-27T22:32:50.799Z,64.10
2019-02-27T22:35:20.144Z,64.30
2019-02-27T22:37:52.368Z,64.30
2019-02-27T22:40:19.455Z,64.10
2019-02-27T22:42:49.737Z,64.00
2019-02-27T22:45:20.136Z,63.90
2019-02-27T22:47:49.881Z,64.10
2019-02-27T22:50:20.353Z,64.40
2019-02-27T22:52:54.193Z,64.50
2019-02-27T22:55:19.075Z,64.90
2019-02-27T22:57:48.435Z,65.20
2019-02-27T23:00:35.968Z,65.30
2019-02-27T23:03:05.363Z,65.50
2019-02-27T23:05:35.222Z,65.30
2019-02-27T23:08:04.244Z,64.80
2019-02-27T23:10:33.592Z,64.80
2019-02-27T23:13:03.944Z,64.80
2019-02-27T23:15:33.336Z,64.50
2019-02-27T23:18:05.772Z,64.60
2019-02-27T23:20:33.125Z,64.90
2019-02-27T23:23:03.328Z,64.80
2019-02-27T23:25:31.825Z,64.10
2019-02-27T23:28:02.061Z,64.00
2019-02-27T23:30:31.498Z,63.70
2019-02-27T23:33:02.339Z,64.10
2019-02-27T23:35:30.315Z,64.10
2019-02-27T23:38:02.879Z,63.50
2019-02-27T23:40:29.872Z,63.80
2019-02-27T23:43:03.385Z,63.60
2019-02-27T23:45:30.117Z,63.30
2019-02-27T23:48:02.199Z,63.70
2019-02-27T23:50:29.612Z,63.80
2019-02-27T23:52:59.483Z,63.50
2019-02-27T23:55:28.931Z,63.50
2019-02-27T23:57:58.575Z,63.40
